Flight Number: EUR3050 Duration: 11:00
Departure: Dublin Airport (EIDW) at 07:00 Distance: 4515 Nm
Arrival: San Diego Int'l Airport (KSAN) at 18:00 Equipment: B777

Weather Information
Dublin Airport, Ireland (EIDW) 53-26N 006-15W 85M Jan 22, 2018 - 03:00 AM EST / 2018.01.22 0800 UTC
Wind: from the W (260 degrees) at 17 MPH (15 KT):0
Visibility: greater than 7 mile(s):0
Sky conditions: mostly cloudy Temperature: 44 F (7 C) Dew Point: 39 F (4 C) Relative Humidity: 81% Pressure (altimeter): 29.80 in. Hg (1009 hPa)
ob: EIDW 220800Z 26015KT 9999 FEW020 BKN034 07/04 Q1009 NOSIG cycle: 8
Sunrise: 08:28 Sunset: 16:44 (UTC)

SAN DIEGO INTERNATIONAL \LINDBERGH FLD, CA, United States (KSAN) 32-44N 117-11W 12M Jan 22, 2018 - 02:51 AM EST / 2018.01.22 0751 UTC
Wind: Calm:0
Visibility: 10 mile(s):0
Sky conditions: mostly cloudy Temperature: 51.1 F (10.6 C) Dew Point: 36.0 F (2.2 C) Relative Humidity: 56% Pressure (altimeter): 30.28 in. Hg (1025 hPa)
ob: KSAN 220751Z 00000KT 10SM BKN250 11/02 A3028 RMK AO2 SLP253 T01060022 401720089 cycle: 8
Sunrise: 14:51 Sunset: 01:09 (UTC)

TAF:2018/01/22 06:30 TAF KSAN 220527Z 2206/2312 VRB03KT P6SM BKN200 FM222000 30008KT P6SM BKN200 FM230200 VRB03KT P6SM BKN200

This route has never been flown.

Route map